Time;durP1;ratioP1;P1;durP2;ratioP2;P2;SDS_P1;SDS_P2;PMS_P1;PMS_P2;Temp;Humidity;BMP_temperature;BMP_pressure;BME280_temperature;BME280_humidity;BME280_pressure;Samples;Min_cycle;Max_cycle;Signal;HPM_P1;HPM_P2
2022/02/05 00:01:06;;;;;;;17.77;4.47;;;4.20;99.90;;;;;;5016073;28;20439;-50
2022/02/05 00:03:39;;;;;;;11.02;4.78;;;4.20;99.90;;;;;;5033399;28;20025;-48
2022/02/05 00:06:06;;;;;;;15.55;4.38;;;4.20;99.90;;;;;;5033014;28;20028;-48
2022/02/05 00:12:12;;;;;;;12.23;4.25;;;4.20;99.90;;;;;;5033069;28;20025;-48
2022/02/05 00:33:18;;;;;;;13.23;4.35;;;4.20;99.90;;;;;;5031132;28;20124;-48
2022/02/05 00:38:52;;;;;;;19.00;5.47;;;4.20;99.90;;;;;;5031881;28;20103;-48
2022/02/05 00:43:53;;;;;;;11.05;4.53;;;4.20;99.90;;;;;;5032519;28;20026;-51
2022/02/05 00:46:20;;;;;;;20.88;4.85;;;4.20;99.90;;;;;;5032366;28;20487;-49
2022/02/05 00:48:45;;;;;;;12.75;5.55;;;4.30;99.90;;;;;;5031680;28;20480;-48
2022/02/05 00:51:19;;;;;;;20.17;5.80;;;4.30;99.90;;;;;;5031891;28;20349;-49
2022/02/05 00:53:49;;;;;;;19.70;5.28;;;4.20;99.90;;;;;;5031891;28;20394;-50
2022/02/05 00:56:24;;;;;;;7.57;3.67;;;4.30;99.90;;;;;;5030690;28;20180;-48
2022/02/05 00:58:49;;;;;;;11.88;4.10;;;4.30;99.90;;;;;;5031795;28;20411;-48
2022/02/05 01:01:15;;;;;;;19.73;5.35;;;4.30;99.90;;;;;;5032147;28;20036;-49
2022/02/05 01:03:41;;;;;;;10.75;4.72;;;4.30;99.90;;;;;;5032035;28;20204;-49
2022/02/05 01:06:07;;;;;;;17.42;6.22;;;4.30;99.90;;;;;;5030545;28;20030;-48
2022/02/05 01:08:35;;;;;;;19.70;4.95;;;4.30;99.90;;;;;;5031188;28;20040;-49
2022/02/05 01:11:01;;;;;;;13.05;5.13;;;4.40;99.90;;;;;;5031786;28;20100;-50
2022/02/05 01:13:29;;;;;;;11.75;4.35;;;4.40;99.90;;;;;;5031942;28;20049;-48
2022/02/05 01:16:09;;;;;;;19.23;4.13;;;4.40;99.90;;;;;;5031720;28;20663;-51
2022/02/05 01:18:38;;;;;;;19.85;4.97;;;4.40;99.90;;;;;;5030999;28;20108;-48
2022/02/05 01:23:42;;;;;;;22.05;6.03;;;4.40;99.90;;;;;;5031877;28;20022;-51
2022/02/05 01:26:34;;;;;;;12.65;5.25;;;4.50;99.90;;;;;;5031788;28;20027;-48
2022/02/05 01:29:05;;;;;;;16.65;5.05;;;4.50;99.90;;;;;;5030583;28;20483;-50
2022/02/05 01:31:38;;;;;;;12.27;5.32;;;4.50;99.90;;;;;;5031529;28;20028;-49
2022/02/05 01:34:16;;;;;;;14.27;5.07;;;4.50;99.90;;;;;;5031353;28;20022;-49
2022/02/05 01:50:36;;;;;;;15.45;5.15;;;4.50;99.90;;;;;;5031048;28;20044;-48
2022/02/05 01:58:40;;;;;;;15.05;6.10;;;4.60;99.90;;;;;;5030324;28;20017;-48
2022/02/05 02:11:59;;;;;;;15.38;5.55;;;4.60;99.90;;;;;;5031148;28;20125;-51
2022/02/05 02:17:47;;;;;;;16.58;6.65;;;4.70;99.90;;;;;;5030346;28;20057;-48
2022/02/05 02:23:07;;;;;;;12.07;5.65;;;4.60;99.90;;;;;;5037034;28;20041;-47
2022/02/05 02:25:51;;;;;;;17.48;5.95;;;4.70;99.90;;;;;;5030595;28;20029;-48
2022/02/05 02:28:24;;;;;;;13.88;5.38;;;4.60;99.90;;;;;;5029841;28;20017;-49
2022/02/05 02:31:04;;;;;;;16.98;5.63;;;4.60;99.90;;;;;;5030256;28;20164;-48
2022/02/05 02:33:34;;;;;;;18.58;6.18;;;4.70;99.90;;;;;;5030186;28;20391;-48
2022/02/05 02:36:00;;;;;;;16.98;5.30;;;4.70;99.90;;;;;;5030404;28;20612;-48
2022/02/05 02:38:34;;;;;;;12.32;5.43;;;4.70;99.90;;;;;;5029544;28;20052;-48
2022/02/05 02:41:10;;;;;;;12.18;5.70;;;4.60;99.90;;;;;;5028752;28;20029;-47
2022/02/05 02:43:37;;;;;;;13.38;5.85;;;4.60;99.90;;;;;;5030356;28;20022;-48
2022/02/05 02:46:03;;;;;;;14.73;7.18;;;4.60;99.90;;;;;;5030004;28;20389;-48
2022/02/05 02:48:28;;;;;;;13.93;7.18;;;4.60;99.90;;;;;;5029411;28;20025;-48
2022/02/05 02:59:19;;;;;;;15.10;7.40;;;4.40;99.90;;;;;;5029613;28;20474;-48
2022/02/05 03:01:45;;;;;;;12.52;6.95;;;4.30;99.90;;;;;;5029857;28;20017;-48
2022/02/05 03:04:11;;;;;;;18.33;8.75;;;4.10;99.90;;;;;;5029984;28;20395;-48
2022/02/05 03:06:36;;;;;;;15.80;7.97;;;4.00;99.90;;;;;;5030313;28;20026;-48
2022/02/05 03:09:02;;;;;;;20.23;9.00;;;3.90;99.90;;;;;;5029112;28;20485;-47
2022/02/05 03:11:28;;;;;;;22.20;8.98;;;3.80;99.90;;;;;;5029886;28;20029;-48
2022/02/05 03:13:53;;;;;;;16.73;8.98;;;3.80;99.90;;;;;;5029894;28;20029;-49
2022/02/05 03:16:24;;;;;;;17.50;8.68;;;3.80;99.90;;;;;;5031649;28;20025;-50
2022/02/05 03:21:21;;;;;;;21.67;9.45;;;3.80;99.90;;;;;;5033832;28;20076;-48
2022/02/05 03:23:47;;;;;;;21.35;9.88;;;3.70;99.90;;;;;;5034065;28;20018;-48
2022/02/05 03:26:12;;;;;;;24.25;10.38;;;3.70;99.90;;;;;;5033804;28;20025;-49
2022/02/05 03:28:38;;;;;;;28.00;10.07;;;3.70;99.90;;;;;;5033487;28;20018;-48
2022/02/05 03:31:04;;;;;;;24.88;10.85;;;3.60;99.90;;;;;;5033516;28;20120;-51
2022/02/05 03:33:29;;;;;;;28.08;11.00;;;3.60;99.90;;;;;;5033604;28;20040;-48
2022/02/05 03:35:55;;;;;;;26.75;10.70;;;3.70;99.90;;;;;;5032255;28;20022;-49
2022/02/05 03:38:21;;;;;;;27.35;9.95;;;3.70;99.90;;;;;;5032820;28;20052;-49
2022/02/05 03:40:47;;;;;;;23.67;8.88;;;3.70;99.90;;;;;;5033453;28;20029;-49
2022/02/05 03:43:12;;;;;;;21.10;9.82;;;3.80;99.90;;;;;;5033822;28;20413;-48
2022/02/05 03:45:38;;;;;;;21.38;8.82;;;3.80;99.90;;;;;;5033636;28;20021;-48
2022/02/05 03:48:05;;;;;;;19.33;8.38;;;3.90;99.90;;;;;;5032723;28;20049;-50
2022/02/05 03:50:32;;;;;;;29.88;8.38;;;3.90;99.90;;;;;;5033225;28;20026;-48
2022/02/05 03:52:57;;;;;;;24.73;8.15;;;3.90;99.90;;;;;;5033072;28;20030;-48
2022/02/05 03:55:24;;;;;;;20.70;8.02;;;4.00;99.90;;;;;;5033274;28;20032;-51
2022/02/05 03:57:49;;;;;;;23.45;7.75;;;4.00;99.90;;;;;;5031349;28;20109;-51
2022/02/05 04:00:15;;;;;;;23.08;8.65;;;4.00;99.90;;;;;;5033175;28;20104;-48
2022/02/05 04:02:41;;;;;;;17.35;6.97;;;4.00;99.90;;;;;;5033142;28;20033;-51
2022/02/05 04:05:07;;;;;;;21.85;7.28;;;4.00;99.90;;;;;;5033511;28;20049;-51
2022/02/05 04:07:37;;;;;;;29.52;7.75;;;4.00;99.90;;;;;;5031161;28;20517;-48
2022/02/05 04:10:04;;;;;;;18.48;6.85;;;4.00;99.90;;;;;;5033039;28;20079;-48
2022/02/05 04:17:58;;;;;;;33.42;5.85;;;4.00;99.90;;;;;;5032475;28;20039;-49
2022/02/05 04:20:24;;;;;;;17.33;6.15;;;4.10;99.90;;;;;;5032939;28;20402;-48
2022/02/05 04:22:50;;;;;;;24.40;6.40;;;4.10;99.90;;;;;;5033084;28;20136;-48
2022/02/05 04:25:16;;;;;;;18.70;6.53;;;4.10;99.90;;;;;;5032621;28;20087;-48
2022/02/05 04:27:41;;;;;;;17.73;5.65;;;4.10;99.90;;;;;;5031193;28;20025;-48
2022/02/05 04:30:07;;;;;;;19.35;5.70;;;4.10;99.90;;;;;;5032498;28;20029;-48
2022/02/05 04:32:33;;;;;;;19.65;5.35;;;4.00;99.90;;;;;;5032479;28;20033;-48
2022/02/05 04:34:58;;;;;;;11.55;5.07;;;4.00;99.90;;;;;;5032586;28;20078;-48
2022/02/05 04:37:27;;;;;;;18.05;6.13;;;4.00;99.90;;;;;;5032266;28;20025;-48
2022/02/05 04:40:06;;;;;;;16.60;5.25;;;3.90;99.90;;;;;;5031024;28;20021;-48
2022/02/05 04:42:58;;;;;;;13.93;5.37;;;4.00;99.90;;;;;;5032459;28;20028;-48
2022/02/05 04:45:39;;;;;;;9.50;2.50;;;3.90;99.90;;;;;;5032383;28;20033;-47
2022/02/05 04:48:40;;;;;;;4.28;1.30;;;3.60;99.90;;;;;;5031688;28;20053;-47
2022/02/05 04:53:54;;;;;;;5.95;1.45;;;2.80;99.90;;;;;;5032509;28;20102;-48
2022/02/05 04:56:32;;;;;;;5.30;1.23;;;2.60;99.90;;;;;;5032036;28;20502;-48
2022/02/05 05:04:28;;;;;;;3.45;1.38;;;2.20;99.90;;;;;;5032349;28;20083;-48
2022/02/05 05:12:18;;;;;;;4.25;1.75;;;2.10;99.90;;;;;;5031793;28;20342;-47
2022/02/05 05:20:12;;;;;;;4.35;1.13;;;2.10;99.90;;;;;;5031237;28;20037;-49
2022/02/05 05:22:38;;;;;;;4.53;1.20;;;2.10;99.90;;;;;;5031475;28;20396;-51
2022/02/05 05:25:04;;;;;;;6.90;1.10;;;2.00;99.90;;;;;;5031487;28;20407;-51
2022/02/05 05:27:31;;;;;;;5.90;1.08;;;2.00;99.90;;;;;;5030967;28;20057;-48
2022/02/05 05:29:56;;;;;;;5.75;1.52;;;2.00;99.90;;;;;;5031396;28;20029;-48
2022/02/05 05:32:22;;;;;;;6.78;1.40;;;2.00;99.90;;;;;;5031442;28;20496;-50
2022/02/05 05:34:47;;;;;;;7.43;1.38;;;2.00;99.90;;;;;;5031275;28;20029;-51
2022/02/05 05:37:13;;;;;;;4.72;1.70;;;1.90;99.90;;;;;;5031343;28;20564;-51
2022/02/05 05:39:41;;;;;;;9.95;2.30;;;1.90;99.90;;;;;;5030905;28;20075;-48
2022/02/05 05:42:11;;;;;;;6.18;1.73;;;2.00;99.90;;;;;;5031284;28;20040;-48
2022/02/05 05:52:18;;;;;;;14.52;4.60;;;2.00;99.90;;;;;;5031012;28;20037;-50
2022/02/05 05:54:44;;;;;;;10.65;3.42;;;2.00;99.90;;;;;;5029898;28;20029;-48
2022/02/05 05:57:10;;;;;;;9.45;3.53;;;2.10;99.90;;;;;;5030899;28;20398;-50
2022/02/05 05:59:38;;;;;;;11.48;4.22;;;2.10;99.90;;;;;;5030542;28;20037;-51
2022/02/05 06:02:04;;;;;;;14.75;5.15;;;2.10;99.90;;;;;;5030791;28;20463;-48
2022/02/05 06:04:29;;;;;;;15.75;6.40;;;2.20;99.90;;;;;;5031244;28;20076;-50
2022/02/05 06:06:55;;;;;;;19.65;6.70;;;2.20;99.90;;;;;;5030979;28;20397;-49
2022/02/05 06:09:20;;;;;;;22.67;6.78;;;2.30;99.90;;;;;;5030261;28;20064;-49
2022/02/05 06:11:46;;;;;;;20.27;7.10;;;2.30;99.90;;;;;;5030878;28;20025;-49
2022/02/05 06:14:16;;;;;;;27.77;7.07;;;2.30;99.90;;;;;;5029435;28;20026;-49
2022/02/05 06:16:43;;;;;;;18.40;6.30;;;2.30;99.90;;;;;;5030748;28;20037;-49
2022/02/05 06:19:09;;;;;;;18.55;5.88;;;2.40;99.90;;;;;;5028967;28;20021;-48
2022/02/05 06:21:34;;;;;;;13.30;4.45;;;2.40;99.90;;;;;;5030747;28;20461;-49
2022/02/05 06:24:00;;;;;;;13.20;4.28;;;2.40;99.90;;;;;;5030462;28;20018;-50
2022/02/05 06:26:25;;;;;;;10.73;4.05;;;2.40;99.90;;;;;;5030672;28;20044;-48
2022/02/05 06:28:51;;;;;;;12.50;4.47;;;2.30;99.90;;;;;;5030156;28;20075;-48
2022/02/05 06:31:16;;;;;;;10.52;3.28;;;2.30;99.90;;;;;;5030477;28;20316;-49
2022/02/05 06:33:42;;;;;;;9.15;3.35;;;2.40;99.90;;;;;;5030558;28;20053;-51
2022/02/05 06:36:07;;;;;;;6.80;3.42;;;2.30;99.90;;;;;;5030404;28;20503;-48
2022/02/05 06:38:32;;;;;;;10.43;3.90;;;2.30;99.90;;;;;;5029682;28;20037;-49
2022/02/05 06:40:58;;;;;;;13.00;4.57;;;2.30;99.90;;;;;;5030424;28;20503;-51
2022/02/05 06:43:23;;;;;;;14.63;4.75;;;2.30;99.90;;;;;;5030199;28;20040;-48
2022/02/05 06:45:49;;;;;;;8.95;4.28;;;2.20;99.90;;;;;;5030122;28;20479;-48
2022/02/05 06:48:14;;;;;;;18.27;5.03;;;2.30;99.90;;;;;;5029895;28;20030;-50
2022/02/05 06:50:40;;;;;;;17.83;5.88;;;2.20;99.90;;;;;;5029603;28;20075;-51
2022/02/05 06:53:06;;;;;;;23.67;6.57;;;2.30;99.90;;;;;;5030486;28;20501;-49
2022/02/05 06:55:31;;;;;;;15.02;7.32;;;2.30;99.90;;;;;;5030091;28;20498;-48
2022/02/05 06:57:57;;;;;;;30.38;9.07;;;2.30;99.90;;;;;;5029370;28;20108;-49
2022/02/05 07:00:22;;;;;;;27.27;8.35;;;2.30;99.90;;;;;;5029936;28;20018;-50
2022/02/05 07:02:48;;;;;;;32.08;8.50;;;2.30;99.90;;;;;;5029881;28;20471;-49
2022/02/05 07:05:13;;;;;;;28.00;8.98;;;2.30;99.90;;;;;;5030036;28;20040;-49
2022/02/05 07:07:40;;;;;;;34.05;9.75;;;2.40;99.90;;;;;;5029493;28;20091;-48
2022/02/05 07:10:07;;;;;;;35.75;10.25;;;2.50;99.90;;;;;;5029907;28;20053;-49
2022/02/05 07:12:37;;;;;;;23.40;8.95;;;2.50;99.90;;;;;;5030114;28;20022;-49
2022/02/05 07:15:08;;;;;;;28.90;8.57;;;2.60;99.90;;;;;;5030015;28;20017;-49
2022/02/05 07:17:55;;;;;;;26.88;7.82;;;2.60;99.90;;;;;;5028100;28;20115;-49
2022/02/05 07:31:06;;;;;;;34.90;8.35;;;2.90;99.90;;;;;;5029927;28;20411;-48
2022/02/05 07:33:31;;;;;;;20.45;7.00;;;3.10;99.90;;;;;;5029768;28;20471;-48
2022/02/05 07:35:57;;;;;;;21.75;7.10;;;3.10;99.90;;;;;;5029715;28;20033;-50
2022/02/05 07:38:22;;;;;;;19.50;8.00;;;3.10;99.90;;;;;;5029290;28;20151;-48
2022/02/05 07:40:49;;;;;;;19.92;8.00;;;3.20;99.90;;;;;;5029632;28;20075;-48
2022/02/05 07:43:15;;;;;;;28.13;8.23;;;3.30;99.90;;;;;;5029638;28;20443;-51
2022/02/05 07:45:40;;;;;;;29.27;7.38;;;3.30;99.90;;;;;;5029611;28;20053;-51
2022/02/05 07:48:06;;;;;;;23.90;8.02;;;3.20;99.90;;;;;;5029004;28;20155;-48
2022/02/05 07:50:31;;;;;;;22.17;7.65;;;3.20;99.90;;;;;;5029588;28;20112;-48
2022/02/05 07:52:57;;;;;;;42.20;11.98;;;3.20;99.90;;;;;;5029483;28;20479;-48
2022/02/05 07:55:22;;;;;;;17.70;7.80;;;3.30;99.90;;;;;;5029440;28;20028;-48
2022/02/05 07:57:48;;;;;;;26.42;8.10;;;3.50;99.90;;;;;;5028943;28;20029;-48
2022/02/05 08:00:14;;;;;;;28.60;7.40;;;3.40;99.90;;;;;;5029420;28;20032;-50
2022/02/05 08:02:39;;;;;;;36.10;8.57;;;3.40;99.90;;;;;;5031665;28;20037;-50
2022/02/05 08:05:05;;;;;;;31.73;9.18;;;3.50;99.90;;;;;;5032923;28;20033;-48
2022/02/05 08:07:30;;;;;;;21.40;7.70;;;3.50;99.90;;;;;;5032495;28;20064;-50
2022/02/05 08:10:00;;;;;;;21.20;6.97;;;3.50;99.90;;;;;;5033171;28;20033;-48
2022/02/05 08:12:27;;;;;;;25.73;7.35;;;3.60;99.90;;;;;;5033101;28;20119;-48
2022/02/05 08:14:54;;;;;;;38.25;8.27;;;3.60;99.90;;;;;;5033050;28;20025;-48
2022/02/05 08:17:32;;;;;;;23.77;7.68;;;3.60;99.90;;;;;;5032763;28;20025;-49
2022/02/05 08:19:58;;;;;;;22.05;7.40;;;3.70;99.90;;;;;;5032952;28;20433;-48
2022/02/05 08:22:23;;;;;;;23.70;6.63;;;3.70;99.90;;;;;;5033079;28;20025;-48
2022/02/05 08:24:51;;;;;;;18.42;6.72;;;3.80;99.90;;;;;;5033061;28;20025;-50
2022/02/05 08:27:18;;;;;;;22.23;7.25;;;3.80;99.90;;;;;;5032078;28;20037;-49
2022/02/05 08:29:55;;;;;;;24.88;6.55;;;3.90;99.90;;;;;;5032641;28;20029;-48
2022/02/05 08:32:24;;;;;;;26.33;6.25;;;4.00;99.90;;;;;;5032624;28;20044;-50
2022/02/05 08:34:50;;;;;;;31.17;6.15;;;4.00;99.90;;;;;;5031201;28;20025;-49
2022/02/05 08:37:15;;;;;;;25.63;6.65;;;3.90;99.90;;;;;;5032053;28;20036;-48
2022/02/05 08:39:42;;;;;;;18.00;5.22;;;3.90;99.90;;;;;;5032482;28;20029;-49
2022/02/05 08:42:07;;;;;;;15.85;6.22;;;4.00;99.90;;;;;;5032763;28;20025;-48
2022/02/05 08:44:33;;;;;;;14.52;6.60;;;4.10;99.90;;;;;;5032378;28;20364;-48
2022/02/05 08:47:00;;;;;;;22.65;7.13;;;4.30;99.90;;;;;;5032400;28;20036;-48
2022/02/05 08:49:28;;;;;;;25.13;6.00;;;4.50;99.90;;;;;;5031950;28;20406;-50
2022/02/05 08:51:56;;;;;;;25.88;6.25;;;4.60;99.90;;;;;;5032084;28;20036;-50
2022/02/05 08:54:23;;;;;;;17.38;6.30;;;4.60;99.90;;;;;;5032052;28;20025;-48
2022/02/05 08:56:51;;;;;;;16.73;6.20;;;4.60;99.90;;;;;;5032062;28;20045;-48
2022/02/05 08:59:17;;;;;;;24.98;6.38;;;4.60;99.90;;;;;;5031474;28;20502;-48
2022/02/05 09:01:53;;;;;;;19.60;6.53;;;4.70;99.90;;;;;;5032077;28;20038;-48
2022/02/05 09:04:29;;;;;;;24.42;6.72;;;4.80;99.90;;;;;;5032287;28;20432;-51
2022/02/05 09:06:58;;;;;;;21.98;6.05;;;4.90;99.90;;;;;;5031853;28;20031;-50
2022/02/05 09:12:55;;;;;;;17.67;5.97;;;5.00;99.90;;;;;;5031960;28;20049;-51
2022/02/05 09:14:44;;;;;;;18.95;5.93;;;4.90;99.90;;;;;;5031059;28;20042;-48
2022/02/05 09:17:10;;;;;;;14.85;5.47;;;5.10;99.90;;;;;;5031513;28;20028;-48
2022/02/05 09:19:36;;;;;;;16.00;5.75;;;5.30;99.90;;;;;;5031163;28;20029;-49
2022/02/05 09:22:03;;;;;;;15.23;5.72;;;5.40;99.90;;;;;;5031552;28;20108;-50
2022/02/05 09:24:28;;;;;;;14.27;5.57;;;5.40;99.90;;;;;;5031559;28;20025;-50
2022/02/05 09:26:59;;;;;;;16.27;5.55;;;5.40;99.90;;;;;;5031382;28;20033;-48
2022/02/05 09:29:25;;;;;;;15.60;6.15;;;5.50;99.90;;;;;;5031047;28;20033;-48
2022/02/05 09:31:52;;;;;;;19.65;5.07;;;5.50;99.90;;;;;;5030315;28;20033;-48
2022/02/05 09:34:18;;;;;;;14.88;5.03;;;5.70;99.90;;;;;;5031562;28;20032;-48
2022/02/05 09:36:44;;;;;;;19.30;5.78;;;5.80;99.90;;;;;;5029842;28;20095;-48
2022/02/05 09:39:11;;;;;;;24.90;5.20;;;6.00;99.90;;;;;;5030588;28;20029;-51
2022/02/05 09:41:38;;;;;;;14.95;4.60;;;6.00;99.90;;;;;;5031134;28;20446;-50
2022/02/05 09:44:05;;;;;;;14.40;5.10;;;6.10;99.90;;;;;;5031040;28;20470;-51
2022/02/05 09:46:31;;;;;;;24.60;4.78;;;6.20;99.90;;;;;;5031151;28;20057;-48
2022/02/05 09:48:57;;;;;;;17.70;4.80;;;6.20;99.90;;;;;;5030359;28;20068;-48
2022/02/05 09:51:32;;;;;;;21.50;5.40;;;6.20;99.90;;;;;;5030832;28;20088;-49
2022/02/05 09:54:00;;;;;;;19.95;5.45;;;6.10;99.90;;;;;;5031106;28;20100;-50
2022/02/05 09:56:28;;;;;;;12.48;5.25;;;6.00;99.90;;;;;;5031040;28;20030;-47
2022/02/05 09:58:54;;;;;;;14.57;5.75;;;6.10;99.90;;;;;;5030353;28;20491;-47
2022/02/05 10:01:23;;;;;;;13.38;5.53;;;6.10;99.90;;;;;;5030847;28;20079;-51
2022/02/05 10:03:51;;;;;;;17.35;5.25;;;6.20;99.90;;;;;;5030718;28;20025;-51
2022/02/05 10:06:21;;;;;;;13.52;4.72;;;6.20;99.90;;;;;;5030921;28;20057;-51
2022/02/05 10:08:58;;;;;;;17.58;6.03;;;6.10;99.90;;;;;;5030144;28;20057;-48
2022/02/05 10:11:23;;;;;;;21.17;5.30;;;6.30;99.90;;;;;;5031001;28;20029;-48
2022/02/05 10:13:49;;;;;;;17.52;5.00;;;6.30;99.90;;;;;;5030889;28;20136;-48
2022/02/05 10:16:15;;;;;;;14.45;4.13;;;6.90;99.90;;;;;;5030436;28;20501;-48
2022/02/05 10:18:45;;;;;;;12.45;4.90;;;7.70;99.90;;;;;;5029815;28;20043;-51
2022/02/05 10:21:26;;;;;;;19.48;4.53;;;8.00;99.90;;;;;;5030136;28;20060;-50
2022/02/05 10:24:00;;;;;;;12.27;3.88;;;8.10;99.90;;;;;;5030218;28;20467;-51
2022/02/05 10:26:34;;;;;;;17.98;4.53;;;7.80;99.90;;;;;;5030392;28;20097;-49
2022/02/05 10:29:05;;;;;;;18.38;4.05;;;7.60;99.90;;;;;;5028404;28;20037;-48
2022/02/05 10:31:56;;;;;;;11.93;3.53;;;7.40;99.90;;;;;;5030321;28;20128;-48
2022/02/05 10:34:22;;;;;;;15.48;3.90;;;7.10;99.90;;;;;;5030452;28;20021;-48
2022/02/05 10:37:13;;;;;;;15.23;4.57;;;7.50;99.90;;;;;;5028682;28;20483;-51
2022/02/05 10:40:22;;;;;;;;;;;7.90;99.90;;;;;;5030248;28;20038;-51
2022/02/05 10:45:13;;;;;;;14.10;3.95;;;7.80;99.90;;;;;;5030260;28;20048;-50
2022/02/05 10:48:00;;;;;;;14.27;3.13;;;7.60;99.90;;;;;;5028351;28;20034;-51
2022/02/05 10:50:28;;;;;;;14.18;3.53;;;7.60;99.90;;;;;;5030304;28;20434;-48
2022/02/05 10:53:01;;;;;;;18.50;4.30;;;7.30;99.90;;;;;;5029948;28;20037;-48
2022/02/05 10:55:44;;;;;;;15.15;4.00;;;7.20;99.90;;;;;;5030105;28;20308;-50
2022/02/05 11:05:53;;;;;;;13.02;4.00;;;8.50;99.90;;;;;;5030195;28;20036;-50
2022/02/05 11:08:21;;;;;;;13.60;3.50;;;8.50;99.90;;;;;;5029243;28;20022;-50
2022/02/05 11:21:17;;;;;;;18.17;3.75;;;10.90;99.10;;;;;;5029886;28;20053;-50
2022/02/05 11:23:48;;;;;;;10.95;3.03;;;10.60;99.70;;;;;;5029771;28;20021;-50
2022/02/05 11:26:13;;;;;;;;;;;10.10;99.40;;;;;;5030106;28;20506;-50
2022/02/05 11:28:51;;;;;;;18.90;3.50;;;9.60;99.00;;;;;;5028984;28;20000;-49
2022/02/05 11:31:36;;;;;;;12.85;3.60;;;9.60;99.90;;;;;;5029921;28;20022;-48
2022/02/05 11:34:35;;;;;;;16.67;3.53;;;9.30;99.90;;;;;;5029584;28;20514;-50
2022/02/05 11:37:07;;;;;;;16.02;3.42;;;10.90;99.40;;;;;;5031864;28;20529;-51
2022/02/05 11:39:52;;;;;;;12.10;3.47;;;11.90;95.90;;;;;;5032859;28;20013;-49
2022/02/05 11:42:35;;;;;;;11.13;3.50;;;12.00;93.70;;;;;;5033636;28;20021;-51
2022/02/05 11:45:26;;;;;;;15.57;3.85;;;11.60;94.00;;;;;;5033400;28;20029;-49
2022/02/05 11:47:53;;;;;;;10.95;3.05;;;10.80;95.00;;;;;;5032708;28;20036;-51
2022/02/05 11:50:20;;;;;;;10.50;3.60;;;11.30;96.50;;;;;;5033386;28;20037;-48
2022/02/05 11:52:46;;;;;;;17.83;3.80;;;11.80;94.80;;;;;;5033144;28;20037;-51
2022/02/05 11:55:13;;;;;;;15.18;3.47;;;11.10;95.40;;;;;;5033214;28;20116;-48
2022/02/05 11:57:45;;;;;;;14.52;4.28;;;10.90;95.20;;;;;;5032564;28;20057;-48
2022/02/05 12:00:19;;;;;;;11.07;3.05;;;9.90;96.00;;;;;;5032988;28;20028;-51
2022/02/05 12:02:54;;;;;;;11.15;3.10;;;9.40;96.90;;;;;;5033042;28;20071;-49
2022/02/05 12:05:25;;;;;;;14.13;2.72;;;9.40;96.50;;;;;;5031853;28;20056;-48
2022/02/05 12:08:06;;;;;;;11.70;3.22;;;9.20;96.60;;;;;;5032309;28;20437;-50
2022/02/05 12:10:45;;;;;;;8.20;3.10;;;8.50;99.00;;;;;;5033030;28;20041;-51
2022/02/05 12:13:21;;;;;;;13.40;3.15;;;8.30;98.70;;;;;;5033073;28;20034;-47
2022/02/05 12:15:48;;;;;;;12.88;3.03;;;8.10;98.80;;;;;;5032642;28;20036;-48
2022/02/05 12:21:12;;;;;;;9.48;2.80;;;8.40;99.00;;;;;;5032394;28;20028;-48
2022/02/05 12:26:13;;;;;;;12.68;3.25;;;8.30;99.60;;;;;;5046853;28;20060;-51
2022/02/05 12:28:40;;;;;;;11.15;3.65;;;8.10;98.80;;;;;;5051172;28;20056;-50
2022/02/05 12:31:34;;;;;;;21.90;3.78;;;7.90;99.90;;;;;;5051451;28;20036;-49
2022/02/05 12:34:10;;;;;;;11.35;3.65;;;7.50;99.90;;;;;;5048638;28;20076;-48
2022/02/05 12:36:46;;;;;;;15.85;2.92;;;7.40;99.90;;;;;;5049883;28;20044;-48
2022/02/05 12:39:30;;;;;;;16.30;3.67;;;7.30;99.90;;;;;;5050740;28;20102;-48
2022/02/05 12:42:12;;;;;;;14.35;3.53;;;7.20;99.90;;;;;;5050882;28;20036;-48
2022/02/05 12:44:39;;;;;;;14.43;3.15;;;7.00;99.90;;;;;;5050027;28;20072;-48
2022/02/05 12:47:16;;;;;;;14.10;4.07;;;7.00;99.90;;;;;;5050696;28;20021;-49
2022/02/05 12:49:54;;;;;;;11.43;2.97;;;6.90;99.90;;;;;;5050817;28;20202;-48
2022/02/05 12:52:25;;;;;;;15.52;3.67;;;7.00;99.90;;;;;;5050619;28;20079;-48
2022/02/05 12:54:56;;;;;;;17.15;3.33;;;7.00;99.90;;;;;;5050896;28;20024;-50
2022/02/05 12:57:21;;;;;;;;;;;7.00;99.90;;;;;;5050794;28;20070;-49
2022/02/05 12:59:47;;;;;;;12.20;3.85;;;7.00;99.90;;;;;;5050806;28;20430;-49
2022/02/05 13:02:15;;;;;;;13.80;3.47;;;7.00;99.90;;;;;;5047360;28;20029;-49
2022/02/05 13:04:43;;;;;;;13.98;3.53;;;7.00;99.90;;;;;;5029584;28;20025;-48
2022/02/05 13:07:27;;;;;;;17.23;3.67;;;7.00;99.90;;;;;;5030405;28;20191;-48
2022/02/05 13:10:05;;;;;;;16.73;3.38;;;7.00;99.90;;;;;;5030626;28;20025;-48
2022/02/05 13:12:37;;;;;;;12.23;3.28;;;7.00;99.90;;;;;;5030366;28;20489;-48
2022/02/05 13:15:21;;;;;;;13.48;3.83;;;6.90;99.90;;;;;;5031006;28;20029;-48
2022/02/05 13:18:12;;;;;;;14.48;3.90;;;6.90;99.90;;;;;;5028685;28;20506;-51
2022/02/05 13:34:24;;;;;;;9.98;3.50;;;7.20;99.90;;;;;;5030857;28;20056;-48
2022/02/05 13:36:59;;;;;;;13.05;3.47;;;7.30;99.90;;;;;;5040512;28;20029;-48
2022/02/05 13:39:40;;;;;;;16.50;4.07;;;7.30;99.90;;;;;;5046467;28;20027;-48
2022/02/05 13:42:15;;;;;;;12.18;3.08;;;7.40;99.90;;;;;;5044047;28;20070;-47
2022/02/05 13:44:53;;;;;;;13.63;3.47;;;7.30;99.90;;;;;;5041238;28;20174;-48
2022/02/05 13:47:18;;;;;;;8.50;3.22;;;7.30;99.90;;;;;;5040552;28;20021;-51
2022/02/05 13:50:02;;;;;;;9.60;3.13;;;7.20;99.90;;;;;;5038773;28;20687;-51
2022/02/05 13:52:33;;;;;;;17.73;3.97;;;7.10;99.90;;;;;;5037575;28;20032;-49
2022/02/05 13:55:12;;;;;;;16.17;3.53;;;7.00;99.90;;;;;;5045154;28;20025;-51
2022/02/05 13:57:54;;;;;;;9.80;2.75;;;6.90;99.90;;;;;;5049130;28;20024;-51
2022/02/05 14:00:20;;;;;;;15.38;3.30;;;6.90;99.90;;;;;;5048559;28;20056;-48
2022/02/05 14:02:57;;;;;;;12.93;3.15;;;6.90;99.90;;;;;;5049788;28;20391;-52
2022/02/05 14:05:22;;;;;;;15.48;3.17;;;7.10;99.90;;;;;;5049744;28;20025;-48
2022/02/05 14:07:48;;;;;;;15.98;3.20;;;7.20;99.90;;;;;;5048820;28;20263;-50
2022/02/05 14:10:15;;;;;;;12.98;3.55;;;7.20;99.90;;;;;;5049395;28;20038;-51
2022/02/05 14:12:48;;;;;;;16.88;3.90;;;7.30;99.90;;;;;;5049357;28;20025;-50
2022/02/05 14:15:15;;;;;;;12.85;2.60;;;7.30;99.90;;;;;;5048074;28;20025;-51
2022/02/05 14:17:40;;;;;;;11.75;3.15;;;7.50;99.90;;;;;;5048385;28;20051;-51
2022/02/05 14:20:12;;;;;;;13.85;3.47;;;7.50;99.90;;;;;;5049191;28;20029;-49
2022/02/05 14:22:40;;;;;;;9.60;3.03;;;7.50;99.90;;;;;;5038797;28;20016;-48
2022/02/05 14:25:16;;;;;;;14.98;2.83;;;7.40;99.90;;;;;;5049075;28;20020;-48
2022/02/05 14:28:07;;;;;;;15.32;3.50;;;7.30;99.90;;;;;;5029281;28;20434;-49
2022/02/05 14:30:35;;;;;;;9.85;2.88;;;7.20;99.90;;;;;;5037074;28;20497;-48
2022/02/05 14:33:05;;;;;;;7.50;2.88;;;7.10;99.90;;;;;;5038828;28;20063;-48
2022/02/05 14:35:48;;;;;;;13.65;3.20;;;6.90;99.90;;;;;;5035808;28;20411;-49
2022/02/05 14:40:57;;;;;;;7.03;2.72;;;6.70;99.90;;;;;;5038278;28;20025;-48
2022/02/05 14:43:23;;;;;;;10.93;4.13;;;6.70;99.90;;;;;;5037545;28;20017;-48
2022/02/05 14:45:49;;;;;;;13.93;3.80;;;6.50;99.90;;;;;;5037748;28;20032;-48
2022/02/05 14:48:14;;;;;;;10.98;3.10;;;6.50;99.90;;;;;;5038639;28;20020;-48
2022/02/05 14:50:40;;;;;;;12.52;3.22;;;6.60;99.90;;;;;;5038451;28;20121;-47
2022/02/05 14:53:08;;;;;;;9.10;3.17;;;6.60;99.90;;;;;;5037273;28;20065;-47
2022/02/05 14:55:34;;;;;;;12.55;3.30;;;6.50;99.90;;;;;;5037456;28;20027;-48
2022/02/05 14:57:59;;;;;;;7.82;3.45;;;6.50;99.90;;;;;;5037659;28;20478;-47
2022/02/05 15:00:25;;;;;;;9.50;3.42;;;6.40;99.90;;;;;;5039196;28;20021;-48
2022/02/05 15:02:51;;;;;;;14.52;3.60;;;6.40;99.90;;;;;;5037345;28;20025;-51
2022/02/05 15:05:17;;;;;;;13.13;3.30;;;6.40;99.90;;;;;;5040026;28;20021;-49
2022/02/05 15:07:43;;;;;;;13.63;3.38;;;6.30;99.90;;;;;;5029664;28;20368;-49
2022/02/05 15:10:12;;;;;;;14.30;3.55;;;6.30;99.90;;;;;;5027208;28;20394;-52
2022/02/05 15:12:39;;;;;;;9.05;3.28;;;6.30;99.90;;;;;;5028566;28;20044;-51
2022/02/05 15:15:11;;;;;;;7.53;3.15;;;6.30;99.90;;;;;;5028548;28;20032;-52
2022/02/05 15:17:41;;;;;;;11.00;3.67;;;6.30;99.90;;;;;;5028207;28;20038;-52
2022/02/05 15:20:08;;;;;;;14.80;3.72;;;6.30;99.90;;;;;;5028163;28;20498;-52
2022/02/05 15:22:33;;;;;;;10.25;3.63;;;6.30;99.90;;;;;;5028605;28;20033;-52
2022/02/05 15:24:59;;;;;;;13.88;3.72;;;6.30;99.90;;;;;;5028597;28;20387;-50
2022/02/05 15:27:25;;;;;;;7.32;3.95;;;6.20;99.90;;;;;;5027979;28;20091;-47
2022/02/05 15:29:50;;;;;;;13.40;3.60;;;6.20;99.90;;;;;;5028448;28;20029;-48
2022/02/05 15:32:16;;;;;;;7.13;4.35;;;6.20;99.90;;;;;;5028973;28;20221;-49
2022/02/05 15:34:44;;;;;;;12.23;4.45;;;6.10;99.90;;;;;;5028415;28;20037;-48
2022/02/05 15:37:16;;;;;;;12.52;4.22;;;6.10;99.90;;;;;;5035496;28;20084;-50
2022/02/05 15:39:54;;;;;;;12.68;3.72;;;6.20;99.90;;;;;;5033640;28;20507;-50
2022/02/05 15:45:05;;;;;;;7.05;3.58;;;6.10;99.90;;;;;;5040049;28;20027;-49
2022/02/05 15:47:31;;;;;;;8.90;3.90;;;6.20;99.90;;;;;;5042783;28;20032;-48
2022/02/05 15:49:57;;;;;;;9.68;4.30;;;6.10;99.90;;;;;;5040450;28;20033;-48